sensor_id;sensor_type;location;lat;lon;timestamp;P1;durP1;ratioP1;P2;durP2;ratioP2
12469;SDS011;36499;46.484;13.832;2023-03-31T00:00:25;5.07;;;2.33;;
12469;SDS011;36499;46.484;13.832;2023-03-31T00:02:52;4.70;;;1.93;;
12469;SDS011;36499;46.484;13.832;2023-03-31T00:05:20;4.47;;;1.80;;
12469;SDS011;36499;46.484;13.832;2023-03-31T00:07:53;4.10;;;1.90;;
12469;SDS011;36499;46.484;13.832;2023-03-31T00:10:25;3.87;;;2.20;;
12469;SDS011;36499;46.484;13.832;2023-03-31T00:12:52;2.93;;;1.73;;
12469;SDS011;36499;46.484;13.832;2023-03-31T00:15:19;8.43;;;2.30;;
12469;SDS011;36499;46.484;13.832;2023-03-31T00:17:47;4.20;;;1.73;;
12469;SDS011;36499;46.484;13.832;2023-03-31T00:20:14;4.90;;;1.97;;
12469;SDS011;36499;46.484;13.832;2023-03-31T00:22:42;3.70;;;1.87;;
12469;SDS011;36499;46.484;13.832;2023-03-31T00:25:12;2.40;;;1.87;;
12469;SDS011;36499;46.484;13.832;2023-03-31T00:27:40;3.63;;;2.20;;
12469;SDS011;36499;46.484;13.832;2023-03-31T00:30:09;2.67;;;1.80;;
12469;SDS011;36499;46.484;13.832;2023-03-31T00:32:38;2.33;;;1.70;;
12469;SDS011;36499;46.484;13.832;2023-03-31T00:35:05;2.90;;;1.70;;
12469;SDS011;36499;46.484;13.832;2023-03-31T00:37:33;3.03;;;1.77;;
12469;SDS011;36499;46.484;13.832;2023-03-31T00:40:01;4.10;;;1.70;;
12469;SDS011;36499;46.484;13.832;2023-03-31T00:42:39;4.37;;;1.90;;
12469;SDS011;36499;46.484;13.832;2023-03-31T00:45:19;3.17;;;1.77;;
12469;SDS011;36499;46.484;13.832;2023-03-31T00:47:53;2.93;;;1.80;;
12469;SDS011;36499;46.484;13.832;2023-03-31T00:50:29;4.63;;;2.20;;
12469;SDS011;36499;46.484;13.832;2023-03-31T00:53:02;2.50;;;1.80;;
12469;SDS011;36499;46.484;13.832;2023-03-31T00:55:37;3.20;;;1.70;;
12469;SDS011;36499;46.484;13.832;2023-03-31T00:58:11;4.87;;;1.90;;
12469;SDS011;36499;46.484;13.832;2023-03-31T01:00:44;3.90;;;2.00;;
12469;SDS011;36499;46.484;13.832;2023-03-31T01:03:13;3.87;;;1.97;;
12469;SDS011;36499;46.484;13.832;2023-03-31T01:05:43;6.30;;;2.03;;
12469;SDS011;36499;46.484;13.832;2023-03-31T01:08:15;4.77;;;1.97;;
12469;SDS011;36499;46.484;13.832;2023-03-31T01:10:49;3.50;;;1.60;;
12469;SDS011;36499;46.484;13.832;2023-03-31T01:13:23;3.07;;;1.83;;
12469;SDS011;36499;46.484;13.832;2023-03-31T01:15:51;2.93;;;1.70;;
12469;SDS011;36499;46.484;13.832;2023-03-31T01:18:19;2.83;;;1.57;;
12469;SDS011;36499;46.484;13.832;2023-03-31T01:20:57;2.80;;;1.60;;
12469;SDS011;36499;46.484;13.832;2023-03-31T01:23:51;2.43;;;1.80;;
12469;SDS011;36499;46.484;13.832;2023-03-31T01:27:21;4.60;;;1.67;;
12469;SDS011;36499;46.484;13.832;2023-03-31T01:30:36;5.20;;;1.80;;
12469;SDS011;36499;46.484;13.832;2023-03-31T01:37:06;3.73;;;1.90;;
12469;SDS011;36499;46.484;13.832;2023-03-31T01:40:33;2.93;;;1.60;;
12469;SDS011;36499;46.484;13.832;2023-03-31T01:43:40;3.57;;;1.90;;
12469;SDS011;36499;46.484;13.832;2023-03-31T01:46:20;4.07;;;1.87;;
12469;SDS011;36499;46.484;13.832;2023-03-31T01:49:06;4.70;;;1.60;;
12469;SDS011;36499;46.484;13.832;2023-03-31T01:51:49;4.97;;;1.50;;
12469;SDS011;36499;46.484;13.832;2023-03-31T01:54:27;3.63;;;1.70;;
12469;SDS011;36499;46.484;13.832;2023-03-31T01:57:07;2.27;;;1.70;;
12469;SDS011;36499;46.484;13.832;2023-03-31T01:59:43;3.43;;;1.77;;
12469;SDS011;36499;46.484;13.832;2023-03-31T02:02:19;4.50;;;1.80;;
12469;SDS011;36499;46.484;13.832;2023-03-31T02:04:54;6.23;;;2.10;;
12469;SDS011;36499;46.484;13.832;2023-03-31T02:07:28;5.23;;;1.90;;
12469;SDS011;36499;46.484;13.832;2023-03-31T02:10:03;3.83;;;1.80;;
12469;SDS011;36499;46.484;13.832;2023-03-31T02:12:37;3.27;;;1.60;;
12469;SDS011;36499;46.484;13.832;2023-03-31T02:15:09;2.90;;;1.70;;
12469;SDS011;36499;46.484;13.832;2023-03-31T02:17:42;4.10;;;1.80;;
12469;SDS011;36499;46.484;13.832;2023-03-31T02:20:15;4.80;;;1.90;;
12469;SDS011;36499;46.484;13.832;2023-03-31T02:22:47;5.20;;;2.13;;
12469;SDS011;36499;46.484;13.832;2023-03-31T02:25:19;3.40;;;1.57;;
12469;SDS011;36499;46.484;13.832;2023-03-31T02:27:55;3.17;;;1.90;;
12469;SDS011;36499;46.484;13.832;2023-03-31T02:30:29;3.93;;;1.90;;
12469;SDS011;36499;46.484;13.832;2023-03-31T02:33:10;4.33;;;2.23;;
12469;SDS011;36499;46.484;13.832;2023-03-31T02:35:37;4.40;;;1.80;;
12469;SDS011;36499;46.484;13.832;2023-03-31T02:38:04;3.33;;;1.97;;
12469;SDS011;36499;46.484;13.832;2023-03-31T02:40:32;3.23;;;1.80;;
12469;SDS011;36499;46.484;13.832;2023-03-31T02:43:01;4.87;;;1.80;;
12469;SDS011;36499;46.484;13.832;2023-03-31T02:45:35;4.80;;;1.80;;
12469;SDS011;36499;46.484;13.832;2023-03-31T02:48:10;5.00;;;2.20;;
12469;SDS011;36499;46.484;13.832;2023-03-31T02:50:51;5.13;;;2.17;;
12469;SDS011;36499;46.484;13.832;2023-03-31T02:53:55;6.50;;;2.00;;
12469;SDS011;36499;46.484;13.832;2023-03-31T02:56:47;4.83;;;2.10;;
12469;SDS011;36499;46.484;13.832;2023-03-31T02:59:49;5.93;;;2.23;;
12469;SDS011;36499;46.484;13.832;2023-03-31T03:02:34;3.47;;;2.20;;
12469;SDS011;36499;46.484;13.832;2023-03-31T03:05:20;4.00;;;2.27;;
12469;SDS011;36499;46.484;13.832;2023-03-31T03:08:02;5.27;;;2.43;;
12469;SDS011;36499;46.484;13.832;2023-03-31T03:10:43;3.97;;;2.00;;
12469;SDS011;36499;46.484;13.832;2023-03-31T03:13:29;4.33;;;2.33;;
12469;SDS011;36499;46.484;13.832;2023-03-31T03:16:11;4.17;;;2.23;;
12469;SDS011;36499;46.484;13.832;2023-03-31T03:18:51;5.90;;;2.00;;
12469;SDS011;36499;46.484;13.832;2023-03-31T03:21:22;3.27;;;2.10;;
12469;SDS011;36499;46.484;13.832;2023-03-31T03:23:50;5.37;;;2.40;;
12469;SDS011;36499;46.484;13.832;2023-03-31T03:26:19;4.43;;;2.00;;
12469;SDS011;36499;46.484;13.832;2023-03-31T03:28:52;4.10;;;2.10;;
12469;SDS011;36499;46.484;13.832;2023-03-31T03:31:21;9.23;;;2.27;;
12469;SDS011;36499;46.484;13.832;2023-03-31T03:33:50;5.30;;;2.20;;
12469;SDS011;36499;46.484;13.832;2023-03-31T03:36:17;3.53;;;1.80;;
12469;SDS011;36499;46.484;13.832;2023-03-31T03:38:47;7.03;;;2.47;;
12469;SDS011;36499;46.484;13.832;2023-03-31T03:41:15;4.13;;;1.97;;
12469;SDS011;36499;46.484;13.832;2023-03-31T03:43:42;3.07;;;2.07;;
12469;SDS011;36499;46.484;13.832;2023-03-31T03:46:09;3.63;;;2.27;;
12469;SDS011;36499;46.484;13.832;2023-03-31T03:48:37;5.20;;;2.40;;
12469;SDS011;36499;46.484;13.832;2023-03-31T03:51:05;6.20;;;2.33;;
12469;SDS011;36499;46.484;13.832;2023-03-31T03:53:32;4.67;;;2.63;;
12469;SDS011;36499;46.484;13.832;2023-03-31T03:55:59;5.20;;;2.20;;
12469;SDS011;36499;46.484;13.832;2023-03-31T03:58:26;5.33;;;2.40;;
12469;SDS011;36499;46.484;13.832;2023-03-31T04:00:54;6.57;;;2.63;;
12469;SDS011;36499;46.484;13.832;2023-03-31T04:03:22;9.40;;;2.70;;
12469;SDS011;36499;46.484;13.832;2023-03-31T04:05:51;6.63;;;2.80;;
12469;SDS011;36499;46.484;13.832;2023-03-31T04:08:18;8.53;;;2.90;;
12469;SDS011;36499;46.484;13.832;2023-03-31T04:10:46;4.40;;;2.60;;
12469;SDS011;36499;46.484;13.832;2023-03-31T04:13:15;10.37;;;2.97;;
12469;SDS011;36499;46.484;13.832;2023-03-31T04:15:42;11.80;;;2.97;;
12469;SDS011;36499;46.484;13.832;2023-03-31T04:18:10;7.07;;;2.77;;
12469;SDS011;36499;46.484;13.832;2023-03-31T04:20:43;6.23;;;3.37;;
12469;SDS011;36499;46.484;13.832;2023-03-31T04:23:11;13.77;;;3.60;;
12469;SDS011;36499;46.484;13.832;2023-03-31T04:25:39;5.70;;;2.67;;
12469;SDS011;36499;46.484;13.832;2023-03-31T04:28:10;5.33;;;3.20;;
12469;SDS011;36499;46.484;13.832;2023-03-31T04:30:38;5.73;;;3.17;;
12469;SDS011;36499;46.484;13.832;2023-03-31T04:33:06;4.10;;;2.80;;
12469;SDS011;36499;46.484;13.832;2023-03-31T04:35:33;7.73;;;3.13;;
12469;SDS011;36499;46.484;13.832;2023-03-31T04:38:14;8.97;;;2.90;;
12469;SDS011;36499;46.484;13.832;2023-03-31T04:40:44;8.50;;;3.10;;
12469;SDS011;36499;46.484;13.832;2023-03-31T04:43:13;7.90;;;2.83;;
12469;SDS011;36499;46.484;13.832;2023-03-31T04:45:41;5.97;;;2.60;;
12469;SDS011;36499;46.484;13.832;2023-03-31T04:48:08;5.63;;;2.80;;
12469;SDS011;36499;46.484;13.832;2023-03-31T04:50:36;8.30;;;3.50;;
12469;SDS011;36499;46.484;13.832;2023-03-31T04:53:04;6.40;;;3.80;;
12469;SDS011;36499;46.484;13.832;2023-03-31T04:55:34;8.87;;;3.77;;
12469;SDS011;36499;46.484;13.832;2023-03-31T04:58:01;9.47;;;3.70;;
12469;SDS011;36499;46.484;13.832;2023-03-31T05:00:28;9.60;;;3.30;;
12469;SDS011;36499;46.484;13.832;2023-03-31T05:02:55;7.90;;;3.47;;
12469;SDS011;36499;46.484;13.832;2023-03-31T05:05:24;7.13;;;3.47;;
12469;SDS011;36499;46.484;13.832;2023-03-31T05:07:51;9.00;;;3.73;;
12469;SDS011;36499;46.484;13.832;2023-03-31T05:10:19;7.87;;;3.20;;
12469;SDS011;36499;46.484;13.832;2023-03-31T05:12:47;10.57;;;3.70;;
12469;SDS011;36499;46.484;13.832;2023-03-31T05:15:15;7.97;;;4.00;;
12469;SDS011;36499;46.484;13.832;2023-03-31T05:17:42;9.67;;;3.53;;
12469;SDS011;36499;46.484;13.832;2023-03-31T05:20:10;9.40;;;3.43;;
12469;SDS011;36499;46.484;13.832;2023-03-31T05:22:39;6.13;;;3.00;;
12469;SDS011;36499;46.484;13.832;2023-03-31T05:25:07;7.47;;;3.00;;
12469;SDS011;36499;46.484;13.832;2023-03-31T05:27:35;8.70;;;3.20;;
12469;SDS011;36499;46.484;13.832;2023-03-31T05:30:05;10.13;;;3.37;;
12469;SDS011;36499;46.484;13.832;2023-03-31T05:32:34;9.07;;;3.67;;
12469;SDS011;36499;46.484;13.832;2023-03-31T05:35:01;5.40;;;3.07;;
12469;SDS011;36499;46.484;13.832;2023-03-31T05:37:29;10.53;;;3.23;;
12469;SDS011;36499;46.484;13.832;2023-03-31T05:39:56;7.30;;;3.40;;
12469;SDS011;36499;46.484;13.832;2023-03-31T05:42:24;8.47;;;3.33;;
12469;SDS011;36499;46.484;13.832;2023-03-31T05:44:51;6.83;;;3.20;;
12469;SDS011;36499;46.484;13.832;2023-03-31T05:47:19;11.40;;;3.50;;
12469;SDS011;36499;46.484;13.832;2023-03-31T05:49:47;8.07;;;2.97;;
12469;SDS011;36499;46.484;13.832;2023-03-31T05:52:15;8.03;;;3.70;;
12469;SDS011;36499;46.484;13.832;2023-03-31T05:54:42;7.30;;;3.13;;
12469;SDS011;36499;46.484;13.832;2023-03-31T05:57:10;6.40;;;3.40;;
12469;SDS011;36499;46.484;13.832;2023-03-31T05:59:37;8.90;;;3.37;;
12469;SDS011;36499;46.484;13.832;2023-03-31T06:02:06;10.20;;;3.37;;
12469;SDS011;36499;46.484;13.832;2023-03-31T06:04:35;9.97;;;3.07;;
12469;SDS011;36499;46.484;13.832;2023-03-31T06:07:03;5.03;;;3.17;;
12469;SDS011;36499;46.484;13.832;2023-03-31T06:09:32;5.27;;;3.17;;
12469;SDS011;36499;46.484;13.832;2023-03-31T06:11:59;7.20;;;3.00;;
12469;SDS011;36499;46.484;13.832;2023-03-31T06:14:27;5.40;;;3.00;;
12469;SDS011;36499;46.484;13.832;2023-03-31T06:16:54;4.47;;;2.90;;
12469;SDS011;36499;46.484;13.832;2023-03-31T06:19:21;6.00;;;3.17;;
12469;SDS011;36499;46.484;13.832;2023-03-31T06:21:50;6.57;;;3.27;;
12469;SDS011;36499;46.484;13.832;2023-03-31T06:24:17;6.70;;;3.17;;
12469;SDS011;36499;46.484;13.832;2023-03-31T06:26:44;6.30;;;3.33;;
12469;SDS011;36499;46.484;13.832;2023-03-31T06:29:11;7.90;;;2.90;;
12469;SDS011;36499;46.484;13.832;2023-03-31T06:31:38;6.43;;;3.40;;
12469;SDS011;36499;46.484;13.832;2023-03-31T06:34:06;6.47;;;3.57;;
12469;SDS011;36499;46.484;13.832;2023-03-31T06:36:33;7.17;;;3.30;;
12469;SDS011;36499;46.484;13.832;2023-03-31T06:39:02;5.43;;;3.30;;
12469;SDS011;36499;46.484;13.832;2023-03-31T06:41:30;5.97;;;3.30;;
12469;SDS011;36499;46.484;13.832;2023-03-31T06:43:57;8.83;;;3.70;;
12469;SDS011;36499;46.484;13.832;2023-03-31T06:46:24;6.57;;;3.10;;
12469;SDS011;36499;46.484;13.832;2023-03-31T06:48:51;7.87;;;3.57;;
12469;SDS011;36499;46.484;13.832;2023-03-31T06:51:18;7.97;;;3.47;;
12469;SDS011;36499;46.484;13.832;2023-03-31T06:53:46;6.67;;;3.87;;
12469;SDS011;36499;46.484;13.832;2023-03-31T06:56:14;8.93;;;3.43;;
12469;SDS011;36499;46.484;13.832;2023-03-31T06:58:41;7.30;;;3.30;;
12469;SDS011;36499;46.484;13.832;2023-03-31T07:01:09;6.67;;;3.53;;
12469;SDS011;36499;46.484;13.832;2023-03-31T07:03:36;6.43;;;3.90;;
12469;SDS011;36499;46.484;13.832;2023-03-31T07:06:03;5.13;;;3.73;;
12469;SDS011;36499;46.484;13.832;2023-03-31T07:08:31;7.90;;;4.50;;
12469;SDS011;36499;46.484;13.832;2023-03-31T07:10:59;5.67;;;3.93;;
12469;SDS011;36499;46.484;13.832;2023-03-31T07:13:28;8.03;;;3.90;;
12469;SDS011;36499;46.484;13.832;2023-03-31T07:15:56;7.20;;;3.67;;
12469;SDS011;36499;46.484;13.832;2023-03-31T07:18:23;6.77;;;4.23;;
12469;SDS011;36499;46.484;13.832;2023-03-31T07:20:56;9.50;;;4.33;;
12469;SDS011;36499;46.484;13.832;2023-03-31T07:23:24;5.23;;;3.77;;
12469;SDS011;36499;46.484;13.832;2023-03-31T07:25:51;7.87;;;4.13;;
12469;SDS011;36499;46.484;13.832;2023-03-31T07:28:19;6.77;;;3.83;;
12469;SDS011;36499;46.484;13.832;2023-03-31T07:30:47;8.87;;;4.07;;
12469;SDS011;36499;46.484;13.832;2023-03-31T07:33:14;9.20;;;4.13;;
12469;SDS011;36499;46.484;13.832;2023-03-31T07:35:42;7.53;;;3.70;;
12469;SDS011;36499;46.484;13.832;2023-03-31T07:38:09;8.43;;;4.10;;
12469;SDS011;36499;46.484;13.832;2023-03-31T07:40:38;7.60;;;3.57;;
12469;SDS011;36499;46.484;13.832;2023-03-31T07:43:06;5.97;;;3.83;;
12469;SDS011;36499;46.484;13.832;2023-03-31T07:45:34;6.43;;;3.80;;
12469;SDS011;36499;46.484;13.832;2023-03-31T07:48:05;7.57;;;3.50;;
12469;SDS011;36499;46.484;13.832;2023-03-31T07:50:32;7.83;;;3.70;;
12469;SDS011;36499;46.484;13.832;2023-03-31T07:53:00;8.27;;;3.90;;
12469;SDS011;36499;46.484;13.832;2023-03-31T07:55:27;9.87;;;4.20;;
12469;SDS011;36499;46.484;13.832;2023-03-31T07:57:55;8.07;;;4.13;;
12469;SDS011;36499;46.484;13.832;2023-03-31T08:00:22;7.03;;;4.33;;
12469;SDS011;36499;46.484;13.832;2023-03-31T08:02:50;8.77;;;4.77;;
12469;SDS011;36499;46.484;13.832;2023-03-31T08:05:19;9.00;;;4.67;;
12469;SDS011;36499;46.484;13.832;2023-03-31T08:07:47;10.07;;;4.57;;
12469;SDS011;36499;46.484;13.832;2023-03-31T08:10:17;10.80;;;4.93;;
12469;SDS011;36499;46.484;13.832;2023-03-31T08:12:48;15.10;;;5.70;;
12469;SDS011;36499;46.484;13.832;2023-03-31T08:15:15;7.13;;;4.57;;
12469;SDS011;36499;46.484;13.832;2023-03-31T08:17:43;11.77;;;5.60;;
12469;SDS011;36499;46.484;13.832;2023-03-31T08:20:11;9.03;;;4.57;;
12469;SDS011;36499;46.484;13.832;2023-03-31T08:22:40;10.27;;;4.87;;
12469;SDS011;36499;46.484;13.832;2023-03-31T08:25:08;7.77;;;4.17;;
12469;SDS011;36499;46.484;13.832;2023-03-31T08:27:36;9.37;;;4.70;;
12469;SDS011;36499;46.484;13.832;2023-03-31T08:30:07;10.03;;;5.27;;
12469;SDS011;36499;46.484;13.832;2023-03-31T08:32:36;11.17;;;5.37;;
12469;SDS011;36499;46.484;13.832;2023-03-31T08:35:04;11.33;;;5.53;;
12469;SDS011;36499;46.484;13.832;2023-03-31T08:37:33;10.73;;;5.07;;
12469;SDS011;36499;46.484;13.832;2023-03-31T08:40:03;6.80;;;4.60;;
12469;SDS011;36499;46.484;13.832;2023-03-31T08:42:35;9.17;;;4.77;;
12469;SDS011;36499;46.484;13.832;2023-03-31T08:45:09;10.57;;;5.60;;
12469;SDS011;36499;46.484;13.832;2023-03-31T08:47:45;9.50;;;5.90;;
12469;SDS011;36499;46.484;13.832;2023-03-31T08:50:20;10.83;;;5.93;;
12469;SDS011;36499;46.484;13.832;2023-03-31T08:52:54;8.57;;;6.03;;
12469;SDS011;36499;46.484;13.832;2023-03-31T08:55:33;12.07;;;6.33;;
12469;SDS011;36499;46.484;13.832;2023-03-31T08:58:13;14.00;;;6.10;;
12469;SDS011;36499;46.484;13.832;2023-03-31T09:00:55;13.17;;;6.33;;
12469;SDS011;36499;46.484;13.832;2023-03-31T09:03:33;9.87;;;6.13;;
12469;SDS011;36499;46.484;13.832;2023-03-31T09:06:12;8.73;;;5.67;;
12469;SDS011;36499;46.484;13.832;2023-03-31T09:08:44;14.30;;;6.53;;
12469;SDS011;36499;46.484;13.832;2023-03-31T09:11:17;10.43;;;6.00;;
12469;SDS011;36499;46.484;13.832;2023-03-31T09:14:02;10.03;;;5.90;;
12469;SDS011;36499;46.484;13.832;2023-03-31T09:16:58;11.93;;;6.67;;
12469;SDS011;36499;46.484;13.832;2023-03-31T09:19:39;12.27;;;6.83;;
12469;SDS011;36499;46.484;13.832;2023-03-31T09:22:14;11.30;;;6.37;;
12469;SDS011;36499;46.484;13.832;2023-03-31T09:24:49;13.80;;;6.13;;
12469;SDS011;36499;46.484;13.832;2023-03-31T09:27:26;14.77;;;7.37;;
12469;SDS011;36499;46.484;13.832;2023-03-31T09:30:00;13.83;;;6.73;;
12469;SDS011;36499;46.484;13.832;2023-03-31T09:32:38;18.03;;;6.80;;
12469;SDS011;36499;46.484;13.832;2023-03-31T09:35:12;16.23;;;5.97;;
12469;SDS011;36499;46.484;13.832;2023-03-31T09:37:45;12.80;;;6.57;;
12469;SDS011;36499;46.484;13.832;2023-03-31T09:40:15;12.80;;;6.93;;
12469;SDS011;36499;46.484;13.832;2023-03-31T09:42:46;13.00;;;7.23;;
12469;SDS011;36499;46.484;13.832;2023-03-31T09:45:21;14.30;;;6.93;;
12469;SDS011;36499;46.484;13.832;2023-03-31T09:47:50;11.27;;;6.90;;
12469;SDS011;36499;46.484;13.832;2023-03-31T09:50:21;13.90;;;7.20;;
12469;SDS011;36499;46.484;13.832;2023-03-31T09:52:49;16.33;;;7.07;;
12469;SDS011;36499;46.484;13.832;2023-03-31T09:55:22;20.17;;;7.73;;
12469;SDS011;36499;46.484;13.832;2023-03-31T09:57:55;14.20;;;8.23;;
12469;SDS011;36499;46.484;13.832;2023-03-31T10:00:25;17.70;;;8.50;;
12469;SDS011;36499;46.484;13.832;2023-03-31T10:02:53;14.37;;;8.23;;
12469;SDS011;36499;46.484;13.832;2023-03-31T10:05:29;14.93;;;7.83;;
12469;SDS011;36499;46.484;13.832;2023-03-31T10:08:16;11.77;;;8.40;;
12469;SDS011;36499;46.484;13.832;2023-03-31T10:10:53;14.10;;;7.87;;
12469;SDS011;36499;46.484;13.832;2023-03-31T10:13:24;17.67;;;8.37;;
12469;SDS011;36499;46.484;13.832;2023-03-31T10:16:00;10.90;;;7.30;;
12469;SDS011;36499;46.484;13.832;2023-03-31T10:18:33;13.90;;;8.43;;
12469;SDS011;36499;46.484;13.832;2023-03-31T10:21:03;11.70;;;7.17;;
12469;SDS011;36499;46.484;13.832;2023-03-31T10:23:33;13.10;;;8.20;;
12469;SDS011;36499;46.484;13.832;2023-03-31T10:26:01;11.83;;;7.60;;
12469;SDS011;36499;46.484;13.832;2023-03-31T10:28:32;14.00;;;7.70;;
12469;SDS011;36499;46.484;13.832;2023-03-31T10:31:02;21.37;;;8.13;;
12469;SDS011;36499;46.484;13.832;2023-03-31T10:33:32;12.70;;;7.47;;
12469;SDS011;36499;46.484;13.832;2023-03-31T10:36:13;13.73;;;7.13;;
12469;SDS011;36499;46.484;13.832;2023-03-31T10:38:47;10.37;;;6.90;;
12469;SDS011;36499;46.484;13.832;2023-03-31T10:41:17;14.70;;;7.47;;
12469;SDS011;36499;46.484;13.832;2023-03-31T10:43:49;11.60;;;7.70;;
12469;SDS011;36499;46.484;13.832;2023-03-31T10:46:19;11.90;;;7.60;;
12469;SDS011;36499;46.484;13.832;2023-03-31T10:48:47;11.73;;;7.70;;
12469;SDS011;36499;46.484;13.832;2023-03-31T10:51:17;17.53;;;8.23;;
12469;SDS011;36499;46.484;13.832;2023-03-31T10:53:46;15.23;;;8.17;;
12469;SDS011;36499;46.484;13.832;2023-03-31T10:59:16;11.23;;;7.70;;
12469;SDS011;36499;46.484;13.832;2023-03-31T11:05:13;14.07;;;8.70;;
12469;SDS011;36499;46.484;13.832;2023-03-31T11:07:52;12.87;;;8.83;;
12469;SDS011;36499;46.484;13.832;2023-03-31T11:10:46;9.43;;;7.73;;
12469;SDS011;36499;46.484;13.832;2023-03-31T11:13:25;9.17;;;7.60;;
12469;SDS011;36499;46.484;13.832;2023-03-31T11:16:03;12.20;;;7.27;;
12469;SDS011;36499;46.484;13.832;2023-03-31T11:18:48;10.90;;;7.00;;
12469;SDS011;36499;46.484;13.832;2023-03-31T11:21:31;13.70;;;8.27;;
12469;SDS011;36499;46.484;13.832;2023-03-31T11:24:15;11.70;;;7.33;;
12469;SDS011;36499;46.484;13.832;2023-03-31T11:27:04;10.73;;;6.87;;
12469;SDS011;36499;46.484;13.832;2023-03-31T11:29:53;12.30;;;6.90;;
12469;SDS011;36499;46.484;13.832;2023-03-31T11:32:36;12.63;;;7.30;;
12469;SDS011;36499;46.484;13.832;2023-03-31T11:35:22;14.30;;;7.13;;
12469;SDS011;36499;46.484;13.832;2023-03-31T11:38:30;11.40;;;7.70;;
12469;SDS011;36499;46.484;13.832;2023-03-31T11:41:15;14.10;;;7.63;;
12469;SDS011;36499;46.484;13.832;2023-03-31T11:43:49;12.93;;;7.63;;
12469;SDS011;36499;46.484;13.832;2023-03-31T11:46:21;17.57;;;8.63;;
12469;SDS011;36499;46.484;13.832;2023-03-31T11:48:54;13.43;;;7.70;;
12469;SDS011;36499;46.484;13.832;2023-03-31T11:51:28;15.90;;;8.03;;
12469;SDS011;36499;46.484;13.832;2023-03-31T11:54:07;16.90;;;8.33;;
12469;SDS011;36499;46.484;13.832;2023-03-31T11:56:43;16.77;;;8.43;;
12469;SDS011;36499;46.484;13.832;2023-03-31T11:59:12;20.57;;;9.63;;
12469;SDS011;36499;46.484;13.832;2023-03-31T12:01:46;15.87;;;8.60;;
12469;SDS011;36499;46.484;13.832;2023-03-31T12:04:24;15.50;;;7.87;;
12469;SDS011;36499;46.484;13.832;2023-03-31T12:07:02;14.20;;;7.10;;
12469;SDS011;36499;46.484;13.832;2023-03-31T12:09:51;14.77;;;6.73;;
12469;SDS011;36499;46.484;13.832;2023-03-31T12:12:30;12.90;;;6.20;;
12469;SDS011;36499;46.484;13.832;2023-03-31T12:15:06;10.73;;;6.23;;
12469;SDS011;36499;46.484;13.832;2023-03-31T12:17:46;12.67;;;6.23;;
12469;SDS011;36499;46.484;13.832;2023-03-31T12:20:24;13.40;;;5.97;;
12469;SDS011;36499;46.484;13.832;2023-03-31T12:23:02;12.73;;;5.57;;
12469;SDS011;36499;46.484;13.832;2023-03-31T12:25:40;10.40;;;5.30;;
12469;SDS011;36499;46.484;13.832;2023-03-31T12:28:17;9.00;;;5.40;;
12469;SDS011;36499;46.484;13.832;2023-03-31T12:30:47;10.03;;;5.93;;
12469;SDS011;36499;46.484;13.832;2023-03-31T12:33:17;9.30;;;5.47;;
12469;SDS011;36499;46.484;13.832;2023-03-31T12:35:56;10.83;;;6.63;;
12469;SDS011;36499;46.484;13.832;2023-03-31T12:38:49;8.63;;;6.07;;
12469;SDS011;36499;46.484;13.832;2023-03-31T12:41:35;9.47;;;6.47;;
12469;SDS011;36499;46.484;13.832;2023-03-31T12:44:15;9.13;;;5.77;;
12469;SDS011;36499;46.484;13.832;2023-03-31T12:47:10;11.67;;;6.00;;
12469;SDS011;36499;46.484;13.832;2023-03-31T12:50:04;11.57;;;5.70;;
12469;SDS011;36499;46.484;13.832;2023-03-31T12:52:55;8.40;;;5.33;;
12469;SDS011;36499;46.484;13.832;2023-03-31T12:55:32;12.63;;;4.90;;
12469;SDS011;36499;46.484;13.832;2023-03-31T13:01:08;9.60;;;5.00;;
12469;SDS011;36499;46.484;13.832;2023-03-31T13:06:51;9.77;;;4.13;;
12469;SDS011;36499;46.484;13.832;2023-03-31T13:12:23;11.53;;;3.37;;
12469;SDS011;36499;46.484;13.832;2023-03-31T13:14:57;12.63;;;3.37;;
12469;SDS011;36499;46.484;13.832;2023-03-31T13:17:25;6.97;;;3.13;;
12469;SDS011;36499;46.484;13.832;2023-03-31T13:19:56;9.33;;;3.50;;
12469;SDS011;36499;46.484;13.832;2023-03-31T13:22:53;10.53;;;3.57;;
12469;SDS011;36499;46.484;13.832;2023-03-31T13:25:45;12.47;;;3.80;;
12469;SDS011;36499;46.484;13.832;2023-03-31T13:28:15;6.47;;;2.90;;
12469;SDS011;36499;46.484;13.832;2023-03-31T13:30:59;14.80;;;3.80;;
12469;SDS011;36499;46.484;13.832;2023-03-31T13:33:31;9.63;;;3.10;;
12469;SDS011;36499;46.484;13.832;2023-03-31T13:36:09;8.33;;;2.57;;
12469;SDS011;36499;46.484;13.832;2023-03-31T13:39:08;7.33;;;2.50;;
12469;SDS011;36499;46.484;13.832;2023-03-31T13:42:00;11.27;;;2.90;;
12469;SDS011;36499;46.484;13.832;2023-03-31T13:44:51;8.27;;;2.77;;
12469;SDS011;36499;46.484;13.832;2023-03-31T13:47:54;8.13;;;2.80;;
12469;SDS011;36499;46.484;13.832;2023-03-31T13:50:49;11.17;;;2.60;;
12469;SDS011;36499;46.484;13.832;2023-03-31T13:53:46;10.10;;;2.77;;
12469;SDS011;36499;46.484;13.832;2023-03-31T13:57:11;6.93;;;2.57;;
12469;SDS011;36499;46.484;13.832;2023-03-31T14:00:08;8.57;;;2.90;;
12469;SDS011;36499;46.484;13.832;2023-03-31T14:03:05;6.97;;;2.90;;
12469;SDS011;36499;46.484;13.832;2023-03-31T14:05:49;7.27;;;2.60;;
12469;SDS011;36499;46.484;13.832;2023-03-31T14:08:28;11.50;;;3.07;;
12469;SDS011;36499;46.484;13.832;2023-03-31T14:11:16;8.87;;;3.10;;
12469;SDS011;36499;46.484;13.832;2023-03-31T14:14:02;11.97;;;3.80;;
12469;SDS011;36499;46.484;13.832;2023-03-31T14:16:34;13.53;;;4.23;;
12469;SDS011;36499;46.484;13.832;2023-03-31T14:19:09;12.23;;;3.97;;
12469;SDS011;36499;46.484;13.832;2023-03-31T14:21:58;15.03;;;4.23;;
12469;SDS011;36499;46.484;13.832;2023-03-31T14:24:37;10.63;;;3.40;;
12469;SDS011;36499;46.484;13.832;2023-03-31T14:27:14;9.40;;;3.70;;
12469;SDS011;36499;46.484;13.832;2023-03-31T14:30:01;8.60;;;3.10;;
12469;SDS011;36499;46.484;13.832;2023-03-31T14:32:42;9.40;;;3.00;;
12469;SDS011;36499;46.484;13.832;2023-03-31T14:35:27;9.27;;;3.47;;
12469;SDS011;36499;46.484;13.832;2023-03-31T14:38:02;12.57;;;3.00;;
12469;SDS011;36499;46.484;13.832;2023-03-31T14:40:41;10.63;;;2.70;;
12469;SDS011;36499;46.484;13.832;2023-03-31T14:43:16;9.97;;;3.40;;
12469;SDS011;36499;46.484;13.832;2023-03-31T14:45:47;11.37;;;3.83;;
12469;SDS011;36499;46.484;13.832;2023-03-31T14:48:23;11.03;;;3.70;;
12469;SDS011;36499;46.484;13.832;2023-03-31T14:50:55;7.00;;;3.60;;
12469;SDS011;36499;46.484;13.832;2023-03-31T14:53:26;13.00;;;3.93;;
12469;SDS011;36499;46.484;13.832;2023-03-31T14:55:55;8.83;;;3.47;;
12469;SDS011;36499;46.484;13.832;2023-03-31T14:58:30;9.73;;;3.43;;
12469;SDS011;36499;46.484;13.832;2023-03-31T15:01:05;9.43;;;2.90;;
12469;SDS011;36499;46.484;13.832;2023-03-31T15:03:35;10.30;;;3.80;;
12469;SDS011;36499;46.484;13.832;2023-03-31T15:06:07;9.93;;;3.53;;
12469;SDS011;36499;46.484;13.832;2023-03-31T15:08:36;10.60;;;3.80;;
12469;SDS011;36499;46.484;13.832;2023-03-31T15:11:04;11.80;;;3.30;;
12469;SDS011;36499;46.484;13.832;2023-03-31T15:13:37;9.03;;;2.67;;
12469;SDS011;36499;46.484;13.832;2023-03-31T15:16:20;10.13;;;2.83;;
12469;SDS011;36499;46.484;13.832;2023-03-31T15:18:58;8.63;;;2.83;;
12469;SDS011;36499;46.484;13.832;2023-03-31T15:21:27;12.90;;;3.37;;
12469;SDS011;36499;46.484;13.832;2023-03-31T15:24:02;8.60;;;3.03;;
12469;SDS011;36499;46.484;13.832;2023-03-31T15:26:31;10.90;;;3.70;;
12469;SDS011;36499;46.484;13.832;2023-03-31T15:29:03;14.30;;;3.27;;
12469;SDS011;36499;46.484;13.832;2023-03-31T15:31:39;10.40;;;2.93;;